sensor_id;sensor_type;location;lat;lon;timestamp;temperature;humidity
18575;DHT22;9417;16.484;102.872;2023-09-08T00:01:37;27.10;99.90
18575;DHT22;9417;16.484;102.872;2023-09-08T00:03:43;27.10;99.90
18575;DHT22;9417;16.484;102.872;2023-09-08T00:05:50;27.00;99.90
18575;DHT22;9417;16.484;102.872;2023-09-08T00:07:57;27.10;99.90
18575;DHT22;9417;16.484;102.872;2023-09-08T00:10:05;27.10;99.90
18575;DHT22;9417;16.484;102.872;2023-09-08T00:12:13;27.10;99.90
18575;DHT22;9417;16.484;102.872;2023-09-08T00:14:20;27.10;99.90
18575;DHT22;9417;16.484;102.872;2023-09-08T00:16:28;27.10;99.90
18575;DHT22;9417;16.484;102.872;2023-09-08T00:18:36;27.10;99.90
18575;DHT22;9417;16.484;102.872;2023-09-08T00:20:43;27.10;99.90
18575;DHT22;9417;16.484;102.872;2023-09-08T00:22:50;27.10;99.90
18575;DHT22;9417;16.484;102.872;2023-09-08T00:24:58;27.10;99.90
18575;DHT22;9417;16.484;102.872;2023-09-08T00:27:05;27.10;99.90
18575;DHT22;9417;16.484;102.872;2023-09-08T00:29:14;27.10;99.90
18575;DHT22;9417;16.484;102.872;2023-09-08T00:31:23;27.20;99.90
18575;DHT22;9417;16.484;102.872;2023-09-08T00:33:31;27.20;99.90
18575;DHT22;9417;16.484;102.872;2023-09-08T00:35:39;27.30;99.90
18575;DHT22;9417;16.484;102.872;2023-09-08T00:37:46;27.30;99.90
18575;DHT22;9417;16.484;102.872;2023-09-08T00:39:53;27.40;99.90
18575;DHT22;9417;16.484;102.872;2023-09-08T00:41:59;27.50;99.90
18575;DHT22;9417;16.484;102.872;2023-09-08T00:44:07;27.60;99.90
18575;DHT22;9417;16.484;102.872;2023-09-08T00:46:16;27.60;99.90
18575;DHT22;9417;16.484;102.872;2023-09-08T00:48:26;27.70;99.90
18575;DHT22;9417;16.484;102.872;2023-09-08T00:50:33;27.70;99.90
18575;DHT22;9417;16.484;102.872;2023-09-08T00:52:42;27.70;99.90
18575;DHT22;9417;16.484;102.872;2023-09-08T00:54:49;27.70;99.90
18575;DHT22;9417;16.484;102.872;2023-09-08T00:56:57;27.70;99.90
18575;DHT22;9417;16.484;102.872;2023-09-08T00:59:04;27.60;99.90
18575;DHT22;9417;16.484;102.872;2023-09-08T01:01:12;27.60;99.90
18575;DHT22;9417;16.484;102.872;2023-09-08T01:03:19;27.60;99.90
18575;DHT22;9417;16.484;102.872;2023-09-08T01:05:29;27.60;99.90
18575;DHT22;9417;16.484;102.872;2023-09-08T01:07:36;27.60;99.90
18575;DHT22;9417;16.484;102.872;2023-09-08T01:09:45;27.60;99.90
18575;DHT22;9417;16.484;102.872;2023-09-08T01:11:53;27.70;99.90
18575;DHT22;9417;16.484;102.872;2023-09-08T01:14:01;27.70;99.90
18575;DHT22;9417;16.484;102.872;2023-09-08T01:16:08;27.70;99.90
18575;DHT22;9417;16.484;102.872;2023-09-08T01:18:15;27.70;99.90
18575;DHT22;9417;16.484;102.872;2023-09-08T01:20:25;27.70;99.90
18575;DHT22;9417;16.484;102.872;2023-09-08T01:22:52;27.70;99.90
18575;DHT22;9417;16.484;102.872;2023-09-08T01:25:15;27.80;99.90
18575;DHT22;9417;16.484;102.872;2023-09-08T01:27:26;27.90;99.90
18575;DHT22;9417;16.484;102.872;2023-09-08T01:29:37;27.90;99.90
18575;DHT22;9417;16.484;102.872;2023-09-08T01:31:46;28.00;99.90
18575;DHT22;9417;16.484;102.872;2023-09-08T01:33:54;28.00;99.90
18575;DHT22;9417;16.484;102.872;2023-09-08T01:36:02;28.00;99.90
18575;DHT22;9417;16.484;102.872;2023-09-08T01:38:09;28.10;99.90
18575;DHT22;9417;16.484;102.872;2023-09-08T01:40:18;28.20;99.90
18575;DHT22;9417;16.484;102.872;2023-09-08T01:42:25;28.20;99.90
18575;DHT22;9417;16.484;102.872;2023-09-08T01:44:32;28.30;99.90
18575;DHT22;9417;16.484;102.872;2023-09-08T01:46:39;28.40;99.90
18575;DHT22;9417;16.484;102.872;2023-09-08T01:48:47;28.40;99.90
18575;DHT22;9417;16.484;102.872;2023-09-08T01:50:54;28.40;99.20
18575;DHT22;9417;16.484;102.872;2023-09-08T01:53:01;28.50;99.00
18575;DHT22;9417;16.484;102.872;2023-09-08T01:55:08;28.50;98.20
18575;DHT22;9417;16.484;102.872;2023-09-08T01:57:18;28.50;97.70
18575;DHT22;9417;16.484;102.872;2023-09-08T01:59:26;28.60;97.50
18575;DHT22;9417;16.484;102.872;2023-09-08T02:01:33;28.60;97.40
18575;DHT22;9417;16.484;102.872;2023-09-08T02:03:41;28.50;96.80
18575;DHT22;9417;16.484;102.872;2023-09-08T02:05:48;28.60;97.30
18575;DHT22;9417;16.484;102.872;2023-09-08T02:07:55;28.50;96.40
18575;DHT22;9417;16.484;102.872;2023-09-08T02:10:03;28.50;97.60
18575;DHT22;9417;16.484;102.872;2023-09-08T02:12:10;28.50;97.80
18575;DHT22;9417;16.484;102.872;2023-09-08T02:14:19;28.50;98.00
18575;DHT22;9417;16.484;102.872;2023-09-08T02:16:24;28.60;97.90
18575;DHT22;9417;16.484;102.872;2023-09-08T02:18:32;28.60;97.30
18575;DHT22;9417;16.484;102.872;2023-09-08T02:20:41;28.60;97.20
18575;DHT22;9417;16.484;102.872;2023-09-08T02:22:49;28.70;97.30
18575;DHT22;9417;16.484;102.872;2023-09-08T02:24:55;28.70;96.30
18575;DHT22;9417;16.484;102.872;2023-09-08T02:27:03;28.80;96.30
18575;DHT22;9417;16.484;102.872;2023-09-08T02:29:10;28.80;96.40
18575;DHT22;9417;16.484;102.872;2023-09-08T02:31:19;29.00;96.00
18575;DHT22;9417;16.484;102.872;2023-09-08T02:33:27;28.90;95.90
18575;DHT22;9417;16.484;102.872;2023-09-08T02:35:37;29.00;95.40
18575;DHT22;9417;16.484;102.872;2023-09-08T02:37:45;29.10;95.40
18575;DHT22;9417;16.484;102.872;2023-09-08T02:39:52;29.10;94.80
18575;DHT22;9417;16.484;102.872;2023-09-08T02:42:00;28.90;94.30
18575;DHT22;9417;16.484;102.872;2023-09-08T02:44:06;29.00;94.60
18575;DHT22;9417;16.484;102.872;2023-09-08T02:46:14;29.10;94.00
18575;DHT22;9417;16.484;102.872;2023-09-08T02:48:23;29.20;92.60
18575;DHT22;9417;16.484;102.872;2023-09-08T02:50:29;29.30;93.10
18575;DHT22;9417;16.484;102.872;2023-09-08T02:52:36;29.30;90.90
18575;DHT22;9417;16.484;102.872;2023-09-08T02:54:42;29.20;91.70
18575;DHT22;9417;16.484;102.872;2023-09-08T02:56:49;29.20;92.30
18575;DHT22;9417;16.484;102.872;2023-09-08T02:58:57;29.10;92.50
18575;DHT22;9417;16.484;102.872;2023-09-08T03:01:13;29.20;92.90
18575;DHT22;9417;16.484;102.872;2023-09-08T03:03:23;29.30;92.60
18575;DHT22;9417;16.484;102.872;2023-09-08T03:05:32;29.30;92.10
18575;DHT22;9417;16.484;102.872;2023-09-08T03:07:39;29.30;91.80
18575;DHT22;9417;16.484;102.872;2023-09-08T03:09:45;29.30;92.70
18575;DHT22;9417;16.484;102.872;2023-09-08T03:11:52;29.30;92.50
18575;DHT22;9417;16.484;102.872;2023-09-08T03:14:00;29.30;92.90
18575;DHT22;9417;16.484;102.872;2023-09-08T03:16:08;29.30;92.90
18575;DHT22;9417;16.484;102.872;2023-09-08T03:18:15;29.30;93.00
18575;DHT22;9417;16.484;102.872;2023-09-08T03:20:23;29.40;93.20
18575;DHT22;9417;16.484;102.872;2023-09-08T03:22:31;29.50;93.10
18575;DHT22;9417;16.484;102.872;2023-09-08T03:24:39;29.50;93.10
18575;DHT22;9417;16.484;102.872;2023-09-08T03:26:46;29.60;92.00
18575;DHT22;9417;16.484;102.872;2023-09-08T03:28:53;29.70;91.80
18575;DHT22;9417;16.484;102.872;2023-09-08T03:31:01;29.80;89.90
18575;DHT22;9417;16.484;102.872;2023-09-08T03:33:10;29.90;89.60
18575;DHT22;9417;16.484;102.872;2023-09-08T03:35:18;30.00;89.70
18575;DHT22;9417;16.484;102.872;2023-09-08T03:37:27;30.00;89.30
18575;DHT22;9417;16.484;102.872;2023-09-08T03:39:34;30.10;89.70
18575;DHT22;9417;16.484;102.872;2023-09-08T03:41:42;30.10;89.10
18575;DHT22;9417;16.484;102.872;2023-09-08T03:43:49;30.10;88.30
18575;DHT22;9417;16.484;102.872;2023-09-08T03:45:57;30.20;87.60
18575;DHT22;9417;16.484;102.872;2023-09-08T03:48:04;30.30;87.90
18575;DHT22;9417;16.484;102.872;2023-09-08T03:50:12;30.40;87.90
18575;DHT22;9417;16.484;102.872;2023-09-08T03:52:19;30.50;87.30
18575;DHT22;9417;16.484;102.872;2023-09-08T03:54:28;30.40;85.80
18575;DHT22;9417;16.484;102.872;2023-09-08T03:56:35;30.30;86.10
18575;DHT22;9417;16.484;102.872;2023-09-08T03:58:43;30.30;86.70
18575;DHT22;9417;16.484;102.872;2023-09-08T04:00:50;30.20;86.70
18575;DHT22;9417;16.484;102.872;2023-09-08T04:02:57;30.20;86.90
18575;DHT22;9417;16.484;102.872;2023-09-08T04:05:06;30.10;86.50
18575;DHT22;9417;16.484;102.872;2023-09-08T04:07:13;30.10;87.00
18575;DHT22;9417;16.484;102.872;2023-09-08T04:09:20;30.10;87.60
18575;DHT22;9417;16.484;102.872;2023-09-08T04:11:30;30.00;87.80
18575;DHT22;9417;16.484;102.872;2023-09-08T04:13:37;30.10;88.70
18575;DHT22;9417;16.484;102.872;2023-09-08T04:15:43;30.10;89.10
18575;DHT22;9417;16.484;102.872;2023-09-08T04:17:50;30.00;89.80
18575;DHT22;9417;16.484;102.872;2023-09-08T04:19:57;30.00;90.00
18575;DHT22;9417;16.484;102.872;2023-09-08T04:22:04;30.10;89.90
18575;DHT22;9417;16.484;102.872;2023-09-08T04:24:12;30.10;89.80
18575;DHT22;9417;16.484;102.872;2023-09-08T04:26:19;30.10;89.60
18575;DHT22;9417;16.484;102.872;2023-09-08T04:28:28;30.10;89.50
18575;DHT22;9417;16.484;102.872;2023-09-08T04:30:35;30.10;89.60
18575;DHT22;9417;16.484;102.872;2023-09-08T04:32:41;30.10;88.40
18575;DHT22;9417;16.484;102.872;2023-09-08T04:34:49;30.00;88.50
18575;DHT22;9417;16.484;102.872;2023-09-08T04:36:56;30.00;89.30
18575;DHT22;9417;16.484;102.872;2023-09-08T04:39:04;30.00;90.80
18575;DHT22;9417;16.484;102.872;2023-09-08T04:41:14;30.00;91.60
18575;DHT22;9417;16.484;102.872;2023-09-08T04:43:22;30.00;92.00
18575;DHT22;9417;16.484;102.872;2023-09-08T04:45:31;30.10;92.50
18575;DHT22;9417;16.484;102.872;2023-09-08T04:47:38;30.10;93.20
18575;DHT22;9417;16.484;102.872;2023-09-08T04:49:46;30.20;93.60
18575;DHT22;9417;16.484;102.872;2023-09-08T04:51:54;30.30;93.70
18575;DHT22;9417;16.484;102.872;2023-09-08T04:54:02;30.40;93.00
18575;DHT22;9417;16.484;102.872;2023-09-08T04:56:10;30.40;92.40
18575;DHT22;9417;16.484;102.872;2023-09-08T04:58:18;30.50;91.70
18575;DHT22;9417;16.484;102.872;2023-09-08T05:00:25;30.60;90.20
18575;DHT22;9417;16.484;102.872;2023-09-08T05:02:34;30.60;90.00
18575;DHT22;9417;16.484;102.872;2023-09-08T05:04:42;30.60;87.10
18575;DHT22;9417;16.484;102.872;2023-09-08T05:06:49;30.60;87.30
18575;DHT22;9417;16.484;102.872;2023-09-08T05:08:57;30.70;87.30
18575;DHT22;9417;16.484;102.872;2023-09-08T05:11:06;30.70;85.70
18575;DHT22;9417;16.484;102.872;2023-09-08T05:13:13;30.70;86.00
18575;DHT22;9417;16.484;102.872;2023-09-08T05:15:34;30.60;85.50
18575;DHT22;9417;16.484;102.872;2023-09-08T05:17:44;30.30;85.00
18575;DHT22;9417;16.484;102.872;2023-09-08T05:19:53;30.10;84.50
18575;DHT22;9417;16.484;102.872;2023-09-08T05:22:00;29.80;84.90
18575;DHT22;9417;16.484;102.872;2023-09-08T05:24:08;29.30;84.40
18575;DHT22;9417;16.484;102.872;2023-09-08T05:26:15;28.90;84.10
18575;DHT22;9417;16.484;102.872;2023-09-08T05:28:23;28.40;86.60
18575;DHT22;9417;16.484;102.872;2023-09-08T05:30:30;28.20;87.80
18575;DHT22;9417;16.484;102.872;2023-09-08T05:32:38;28.00;89.00
18575;DHT22;9417;16.484;102.872;2023-09-08T05:34:47;28.00;89.60
18575;DHT22;9417;16.484;102.872;2023-09-08T05:36:54;27.90;90.10
18575;DHT22;9417;16.484;102.872;2023-09-08T05:39:01;27.80;89.20
18575;DHT22;9417;16.484;102.872;2023-09-08T05:41:10;27.60;90.20
18575;DHT22;9417;16.484;102.872;2023-09-08T05:43:17;27.40;90.80
18575;DHT22;9417;16.484;102.872;2023-09-08T05:45:25;27.30;91.70
18575;DHT22;9417;16.484;102.872;2023-09-08T05:47:32;27.30;92.70
18575;DHT22;9417;16.484;102.872;2023-09-08T05:49:41;27.30;93.40
18575;DHT22;9417;16.484;102.872;2023-09-08T05:51:50;27.40;93.80
18575;DHT22;9417;16.484;102.872;2023-09-08T05:53:57;27.50;93.80
18575;DHT22;9417;16.484;102.872;2023-09-08T05:56:05;27.60;93.40
18575;DHT22;9417;16.484;102.872;2023-09-08T05:58:13;27.70;93.10
18575;DHT22;9417;16.484;102.872;2023-09-08T06:00:21;27.80;93.00
18575;DHT22;9417;16.484;102.872;2023-09-08T06:02:29;27.80;93.10
18575;DHT22;9417;16.484;102.872;2023-09-08T06:04:36;27.90;93.10
18575;DHT22;9417;16.484;102.872;2023-09-08T06:06:43;27.90;93.20
18575;DHT22;9417;16.484;102.872;2023-09-08T06:08:52;27.90;93.40
18575;DHT22;9417;16.484;102.872;2023-09-08T06:11:01;27.90;93.50
18575;DHT22;9417;16.484;102.872;2023-09-08T06:13:10;28.00;93.50
18575;DHT22;9417;16.484;102.872;2023-09-08T06:15:19;28.00;93.50
18575;DHT22;9417;16.484;102.872;2023-09-08T06:17:26;28.00;93.60
18575;DHT22;9417;16.484;102.872;2023-09-08T06:19:33;27.90;93.70
18575;DHT22;9417;16.484;102.872;2023-09-08T06:21:40;27.90;93.70
18575;DHT22;9417;16.484;102.872;2023-09-08T06:23:48;27.90;93.70
18575;DHT22;9417;16.484;102.872;2023-09-08T06:25:59;27.90;93.80
18575;DHT22;9417;16.484;102.872;2023-09-08T06:28:08;27.90;94.00
18575;DHT22;9417;16.484;102.872;2023-09-08T06:30:16;27.80;93.90
18575;DHT22;9417;16.484;102.872;2023-09-08T06:32:23;27.80;93.90
18575;DHT22;9417;16.484;102.872;2023-09-08T06:34:31;27.80;93.90
18575;DHT22;9417;16.484;102.872;2023-09-08T06:36:40;27.70;93.70
18575;DHT22;9417;16.484;102.872;2023-09-08T06:38:47;27.70;93.40
18575;DHT22;9417;16.484;102.872;2023-09-08T06:40:55;27.60;93.50
18575;DHT22;9417;16.484;102.872;2023-09-08T06:43:04;27.60;94.00
18575;DHT22;9417;16.484;102.872;2023-09-08T06:45:34;27.60;94.10
18575;DHT22;9417;16.484;102.872;2023-09-08T06:47:41;27.60;94.20
18575;DHT22;9417;16.484;102.872;2023-09-08T06:49:49;27.60;94.20
18575;DHT22;9417;16.484;102.872;2023-09-08T06:51:54;27.60;94.10
18575;DHT22;9417;16.484;102.872;2023-09-08T06:54:02;27.60;94.00
18575;DHT22;9417;16.484;102.872;2023-09-08T06:56:14;27.60;94.20
18575;DHT22;9417;16.484;102.872;2023-09-08T06:58:23;27.50;94.40
18575;DHT22;9417;16.484;102.872;2023-09-08T07:00:30;27.60;94.50
18575;DHT22;9417;16.484;102.872;2023-09-08T07:02:39;27.60;94.50
18575;DHT22;9417;16.484;102.872;2023-09-08T07:04:47;27.60;94.50
18575;DHT22;9417;16.484;102.872;2023-09-08T07:06:55;27.60;94.50
18575;DHT22;9417;16.484;102.872;2023-09-08T07:09:02;27.60;94.50
18575;DHT22;9417;16.484;102.872;2023-09-08T07:11:09;27.60;94.50
18575;DHT22;9417;16.484;102.872;2023-09-08T07:13:22;27.60;94.50
18575;DHT22;9417;16.484;102.872;2023-09-08T07:15:30;27.60;94.60
18575;DHT22;9417;16.484;102.872;2023-09-08T07:17:40;27.60;94.80
18575;DHT22;9417;16.484;102.872;2023-09-08T07:19:48;27.60;94.80
18575;DHT22;9417;16.484;102.872;2023-09-08T07:21:54;27.60;94.90
18575;DHT22;9417;16.484;102.872;2023-09-08T07:24:01;27.60;94.90
18575;DHT22;9417;16.484;102.872;2023-09-08T07:26:08;27.60;94.90
18575;DHT22;9417;16.484;102.872;2023-09-08T07:28:16;27.50;95.00
18575;DHT22;9417;16.484;102.872;2023-09-08T07:30:30;27.50;94.90
18575;DHT22;9417;16.484;102.872;2023-09-08T07:32:38;27.50;95.00
18575;DHT22;9417;16.484;102.872;2023-09-08T07:34:46;27.50;95.10
18575;DHT22;9417;16.484;102.872;2023-09-08T07:37:00;27.50;95.10
18575;DHT22;9417;16.484;102.872;2023-09-08T07:39:07;27.40;95.20
18575;DHT22;9417;16.484;102.872;2023-09-08T07:41:15;27.40;95.20
18575;DHT22;9417;16.484;102.872;2023-09-08T07:43:22;27.40;95.30
18575;DHT22;9417;16.484;102.872;2023-09-08T07:45:31;27.50;95.20
18575;DHT22;9417;16.484;102.872;2023-09-08T07:47:38;27.50;95.30
18575;DHT22;9417;16.484;102.872;2023-09-08T07:49:47;27.50;95.20
18575;DHT22;9417;16.484;102.872;2023-09-08T07:51:54;27.40;95.30
18575;DHT22;9417;16.484;102.872;2023-09-08T07:54:02;27.40;95.40
18575;DHT22;9417;16.484;102.872;2023-09-08T07:56:09;27.50;95.40
18575;DHT22;9417;16.484;102.872;2023-09-08T07:58:15;27.40;95.30
18575;DHT22;9417;16.484;102.872;2023-09-08T08:00:23;27.40;95.40
18575;DHT22;9417;16.484;102.872;2023-09-08T08:02:33;27.40;95.50
18575;DHT22;9417;16.484;102.872;2023-09-08T08:04:40;27.40;95.60
18575;DHT22;9417;16.484;102.872;2023-09-08T08:06:47;27.40;95.60
18575;DHT22;9417;16.484;102.872;2023-09-08T08:08:54;27.40;95.60
18575;DHT22;9417;16.484;102.872;2023-09-08T08:11:10;27.40;95.50
18575;DHT22;9417;16.484;102.872;2023-09-08T08:13:17;27.40;95.40
18575;DHT22;9417;16.484;102.872;2023-09-08T08:15:36;27.30;95.40
18575;DHT22;9417;16.484;102.872;2023-09-08T08:17:45;27.30;95.30
18575;DHT22;9417;16.484;102.872;2023-09-08T08:19:52;27.30;95.50
18575;DHT22;9417;16.484;102.872;2023-09-08T08:21:59;27.30;95.50
18575;DHT22;9417;16.484;102.872;2023-09-08T08:24:07;27.30;95.50
18575;DHT22;9417;16.484;102.872;2023-09-08T08:26:15;27.20;95.40
18575;DHT22;9417;16.484;102.872;2023-09-08T08:28:23;27.20;95.60
18575;DHT22;9417;16.484;102.872;2023-09-08T08:30:30;27.10;95.60
18575;DHT22;9417;16.484;102.872;2023-09-08T08:32:37;27.00;95.60
18575;DHT22;9417;16.484;102.872;2023-09-08T08:34:47;27.00;96.00
18575;DHT22;9417;16.484;102.872;2023-09-08T08:36:54;26.90;96.40
18575;DHT22;9417;16.484;102.872;2023-09-08T08:39:01;26.90;96.50
18575;DHT22;9417;16.484;102.872;2023-09-08T08:41:11;26.90;96.40
18575;DHT22;9417;16.484;102.872;2023-09-08T08:43:18;26.90;96.30
18575;DHT22;9417;16.484;102.872;2023-09-08T08:45:26;26.90;96.40
18575;DHT22;9417;16.484;102.872;2023-09-08T08:47:33;26.90;96.50
18575;DHT22;9417;16.484;102.872;2023-09-08T08:49:42;26.90;96.60
18575;DHT22;9417;16.484;102.872;2023-09-08T08:51:53;26.80;96.80
18575;DHT22;9417;16.484;102.872;2023-09-08T08:54:01;26.90;96.90
18575;DHT22;9417;16.484;102.872;2023-09-08T08:56:10;26.80;97.00
18575;DHT22;9417;16.484;102.872;2023-09-08T08:58:18;26.90;97.10
18575;DHT22;9417;16.484;102.872;2023-09-08T09:00:30;26.90;97.10
18575;DHT22;9417;16.484;102.872;2023-09-08T09:02:41;26.90;97.10
18575;DHT22;9417;16.484;102.872;2023-09-08T09:05:02;26.90;97.10
18575;DHT22;9417;16.484;102.872;2023-09-08T09:07:12;26.90;97.10
18575;DHT22;9417;16.484;102.872;2023-09-08T09:09:20;27.00;97.00
18575;DHT22;9417;16.484;102.872;2023-09-08T09:11:27;27.00;97.00
18575;DHT22;9417;16.484;102.872;2023-09-08T09:13:35;27.00;97.00
18575;DHT22;9417;16.484;102.872;2023-09-08T09:15:43;27.00;97.10
18575;DHT22;9417;16.484;102.872;2023-09-08T09:18:02;27.00;97.10
18575;DHT22;9417;16.484;102.872;2023-09-08T09:20:14;26.90;97.30
18575;DHT22;9417;16.484;102.872;2023-09-08T09:22:24;27.00;97.60
18575;DHT22;9417;16.484;102.872;2023-09-08T09:24:43;26.90;97.80
18575;DHT22;9417;16.484;102.872;2023-09-08T09:26:53;26.90;98.10
18575;DHT22;9417;16.484;102.872;2023-09-08T09:29:00;26.90;98.40
18575;DHT22;9417;16.484;102.872;2023-09-08T09:31:07;26.90;98.50
18575;DHT22;9417;16.484;102.872;2023-09-08T09:33:16;26.80;98.60
18575;DHT22;9417;16.484;102.872;2023-09-08T09:35:40;26.90;98.90
18575;DHT22;9417;16.484;102.872;2023-09-08T09:37:50;26.90;99.30
18575;DHT22;9417;16.484;102.872;2023-09-08T09:39:57;26.80;99.50
18575;DHT22;9417;16.484;102.872;2023-09-08T09:42:05;26.80;99.70
18575;DHT22;9417;16.484;102.872;2023-09-08T09:44:12;26.80;99.90
18575;DHT22;9417;16.484;102.872;2023-09-08T09:46:20;26.90;99.90
18575;DHT22;9417;16.484;102.872;2023-09-08T09:48:28;26.90;99.90
18575;DHT22;9417;16.484;102.872;2023-09-08T09:50:37;26.90;99.90
18575;DHT22;9417;16.484;102.872;2023-09-08T09:52:44;26.90;99.90
18575;DHT22;9417;16.484;102.872;2023-09-08T09:54:55;26.90;99.90
18575;DHT22;9417;16.484;102.872;2023-09-08T09:57:04;26.90;99.90
18575;DHT22;9417;16.484;102.872;2023-09-08T09:59:12;26.90;99.90
18575;DHT22;9417;16.484;102.872;2023-09-08T10:01:20;26.90;99.90
18575;DHT22;9417;16.484;102.872;2023-09-08T10:03:28;26.90;99.90
18575;DHT22;9417;16.484;102.872;2023-09-08T10:05:37;26.90;99.90
18575;DHT22;9417;16.484;102.872;2023-09-08T10:07:46;27.00;99.90
18575;DHT22;9417;16.484;102.872;2023-09-08T10:09:55;27.00;99.90
18575;DHT22;9417;16.484;102.872;2023-09-08T10:12:04;27.00;99.90
18575;DHT22;9417;16.484;102.872;2023-09-08T10:14:12;27.00;99.90
18575;DHT22;9417;16.484;102.872;2023-09-08T10:16:20;27.00;99.90
18575;DHT22;9417;16.484;102.872;2023-09-08T10:18:28;27.00;99.90
18575;DHT22;9417;16.484;102.872;2023-09-08T10:20:37;26.90;99.90
18575;DHT22;9417;16.484;102.872;2023-09-08T10:22:44;26.90;99.90
18575;DHT22;9417;16.484;102.872;2023-09-08T10:24:56;26.90;99.90
18575;DHT22;9417;16.484;102.872;2023-09-08T10:27:06;26.90;99.90
18575;DHT22;9417;16.484;102.872;2023-09-08T10:29:15;26.90;99.90
18575;DHT22;9417;16.484;102.872;2023-09-08T10:31:24;26.90;99.90
18575;DHT22;9417;16.484;102.872;2023-09-08T10:33:33;26.90;99.90
18575;DHT22;9417;16.484;102.872;2023-09-08T10:35:41;26.90;99.90
18575;DHT22;9417;16.484;102.872;2023-09-08T10:37:49;26.80;99.90
18575;DHT22;9417;16.484;102.872;2023-09-08T10:40:21;26.90;99.90
18575;DHT22;9417;16.484;102.872;2023-09-08T10:42:28;26.80;99.90
18575;DHT22;9417;16.484;102.872;2023-09-08T10:44:35;26.80;99.90
18575;DHT22;9417;16.484;102.872;2023-09-08T10:46:45;26.80;99.90
18575;DHT22;9417;16.484;102.872;2023-09-08T10:48:54;26.80;99.90
18575;DHT22;9417;16.484;102.872;2023-09-08T10:51:05;26.80;99.90
18575;DHT22;9417;16.484;102.872;2023-09-08T10:53:16;26.70;99.90
18575;DHT22;9417;16.484;102.872;2023-09-08T10:55:35;26.70;99.90
18575;DHT22;9417;16.484;102.872;2023-09-08T10:57:45;26.70;99.90
18575;DHT22;9417;16.484;102.872;2023-09-08T10:59:53;26.60;99.90
18575;DHT22;9417;16.484;102.872;2023-09-08T11:02:04;26.60;99.90
18575;DHT22;9417;16.484;102.872;2023-09-08T11:04:12;26.70;99.90
18575;DHT22;9417;16.484;102.872;2023-09-08T11:06:23;26.60;99.90
18575;DHT22;9417;16.484;102.872;2023-09-08T11:08:36;26.60;99.90
18575;DHT22;9417;16.484;102.872;2023-09-08T11:10:46;26.60;99.90
18575;DHT22;9417;16.484;102.872;2023-09-08T11:12:54;26.60;99.90
18575;DHT22;9417;16.484;102.872;2023-09-08T11:15:03;26.60;99.90
18575;DHT22;9417;16.484;102.872;2023-09-08T11:17:12;26.60;99.90
18575;DHT22;9417;16.484;102.872;2023-09-08T11:19:20;26.50;99.90
18575;DHT22;9417;16.484;102.872;2023-09-08T11:21:27;26.40;99.90
18575;DHT22;9417;16.484;102.872;2023-09-08T11:23:40;26.40;99.90
18575;DHT22;9417;16.484;102.872;2023-09-08T11:25:50;26.40;99.90
18575;DHT22;9417;16.484;102.872;2023-09-08T11:27:56;26.40;99.90
18575;DHT22;9417;16.484;102.872;2023-09-08T11:30:05;26.40;99.90
18575;DHT22;9417;16.484;102.872;2023-09-08T11:32:13;26.40;99.90
18575;DHT22;9417;16.484;102.872;2023-09-08T11:34:21;26.40;99.90
18575;DHT22;9417;16.484;102.872;2023-09-08T11:36:28;26.40;99.90
18575;DHT22;9417;16.484;102.872;2023-09-08T11:38:36;26.50;99.90
18575;DHT22;9417;16.484;102.872;2023-09-08T11:40:43;26.40;99.90
18575;DHT22;9417;16.484;102.872;2023-09-08T11:42:54;26.30;99.90
18575;DHT22;9417;16.484;102.872;2023-09-08T11:45:01;26.30;99.90
18575;DHT22;9417;16.484;102.872;2023-09-08T11:47:09;26.30;99.90
18575;DHT22;9417;16.484;102.872;2023-09-08T11:49:19;26.20;99.90
18575;DHT22;9417;16.484;102.872;2023-09-08T11:51:28;26.20;99.90
18575;DHT22;9417;16.484;102.872;2023-09-08T11:53:35;26.20;99.90
18575;DHT22;9417;16.484;102.872;2023-09-08T11:55:43;26.20;99.90
18575;DHT22;9417;16.484;102.872;2023-09-08T11:57:53;26.30;99.90
18575;DHT22;9417;16.484;102.872;2023-09-08T12:00:02;26.30;99.90
18575;DHT22;9417;16.484;102.872;2023-09-08T12:02:10;26.30;99.90
18575;DHT22;9417;16.484;102.872;2023-09-08T12:04:21;26.20;99.90
18575;DHT22;9417;16.484;102.872;2023-09-08T12:06:29;26.20;99.90
18575;DHT22;9417;16.484;102.872;2023-09-08T12:08:36;26.20;99.90
18575;DHT22;9417;16.484;102.872;2023-09-08T12:10:44;26.20;99.90
18575;DHT22;9417;16.484;102.872;2023-09-08T12:12:53;26.10;99.90
18575;DHT22;9417;16.484;102.872;2023-09-08T12:15:05;26.10;99.90
18575;DHT22;9417;16.484;102.872;2023-09-08T12:17:12;26.10;99.90
18575;DHT22;9417;16.484;102.872;2023-09-08T12:19:31;26.10;99.90
18575;DHT22;9417;16.484;102.872;2023-09-08T12:21:54;26.20;99.90
18575;DHT22;9417;16.484;102.872;2023-09-08T12:24:01;26.20;99.90
18575;DHT22;9417;16.484;102.872;2023-09-08T12:26:08;26.20;99.90
18575;DHT22;9417;16.484;102.872;2023-09-08T12:28:19;26.20;99.90
18575;DHT22;9417;16.484;102.872;2023-09-08T12:30:27;26.20;99.90
18575;DHT22;9417;16.484;102.872;2023-09-08T12:32:37;26.20;99.90
18575;DHT22;9417;16.484;102.872;2023-09-08T12:34:46;26.10;99.90
18575;DHT22;9417;16.484;102.872;2023-09-08T12:36:56;26.20;99.90
18575;DHT22;9417;16.484;102.872;2023-09-08T12:39:05;26.20;99.90
18575;DHT22;9417;16.484;102.872;2023-09-08T12:41:12;26.20;99.90
18575;DHT22;9417;16.484;102.872;2023-09-08T12:43:21;26.20;99.90
18575;DHT22;9417;16.484;102.872;2023-09-08T12:45:31;26.20;99.90
18575;DHT22;9417;16.484;102.872;2023-09-08T12:47:38;26.20;99.90
18575;DHT22;9417;16.484;102.872;2023-09-08T12:49:45;26.30;99.90
18575;DHT22;9417;16.484;102.872;2023-09-08T12:51:54;26.30;99.90
18575;DHT22;9417;16.484;102.872;2023-09-08T12:54:01;26.30;99.90
18575;DHT22;9417;16.484;102.872;2023-09-08T12:56:08;26.20;99.90
18575;DHT22;9417;16.484;102.872;2023-09-08T12:58:15;26.30;99.90
18575;DHT22;9417;16.484;102.872;2023-09-08T13:00:24;26.20;99.90
18575;DHT22;9417;16.484;102.872;2023-09-08T13:02:33;26.20;99.90
18575;DHT22;9417;16.484;102.872;2023-09-08T13:04:39;26.20;99.90
18575;DHT22;9417;16.484;102.872;2023-09-08T13:06:47;26.20;99.90
18575;DHT22;9417;16.484;102.872;2023-09-08T13:08:54;26.30;99.90
18575;DHT22;9417;16.484;102.872;2023-09-08T13:11:01;26.30;99.90
18575;DHT22;9417;16.484;102.872;2023-09-08T13:13:08;26.30;99.90
18575;DHT22;9417;16.484;102.872;2023-09-08T13:15:16;26.30;99.90
18575;DHT22;9417;16.484;102.872;2023-09-08T13:17:24;26.40;99.90
18575;DHT22;9417;16.484;102.872;2023-09-08T13:19:32;26.30;99.90